createdAt,value
2018-12-03T00:01:07.548Z,18.30
2018-12-03T00:03:51.512Z,20.55
2018-12-03T00:06:33.542Z,19.70
2018-12-03T00:09:15.468Z,19.90
2018-12-03T00:11:57.697Z,18.00
2018-12-03T00:14:39.540Z,18.98
2018-12-03T00:17:21.263Z,21.00
2018-12-03T00:20:03.773Z,21.10
2018-12-03T00:22:45.897Z,21.07
2018-12-03T00:25:27.653Z,19.90
2018-12-03T00:28:09.500Z,18.17
2018-12-03T00:30:52.059Z,23.10
2018-12-03T00:33:34.222Z,20.43
2018-12-03T00:36:16.342Z,18.80
2018-12-03T00:38:58.647Z,23.35
2018-12-03T00:41:41.514Z,23.40
2018-12-03T00:44:23.877Z,22.30
2018-12-03T00:47:06.364Z,22.15
2018-12-03T00:49:48.422Z,22.50
2018-12-03T00:52:30.581Z,25.27
2018-12-03T00:55:12.556Z,24.60
2018-12-03T00:57:55.059Z,24.23
2018-12-03T01:00:37.515Z,24.95
2018-12-03T01:03:20.344Z,24.80
2018-12-03T01:06:02.566Z,24.57
2018-12-03T01:08:44.642Z,24.45
2018-12-03T01:11:26.912Z,21.15
2018-12-03T01:14:08.995Z,23.35
2018-12-03T01:16:51.007Z,24.63
2018-12-03T01:19:32.713Z,25.50
2018-12-03T01:22:14.776Z,23.57
2018-12-03T01:24:57.319Z,25.43
2018-12-03T01:27:39.316Z,23.30
2018-12-03T01:30:21.464Z,25.90
2018-12-03T01:36:22.640Z,23.65
2018-12-03T01:39:20.384Z,23.75
2018-12-03T01:42:18.884Z,23.32
2018-12-03T01:45:16.638Z,24.23
2018-12-03T01:48:14.072Z,28.00
2018-12-03T01:51:11.901Z,26.60
2018-12-03T01:54:09.326Z,24.85
2018-12-03T01:57:06.748Z,23.12
2018-12-03T02:00:05.157Z,23.18
2018-12-03T02:03:02.743Z,26.07
2018-12-03T02:06:00.572Z,25.57
2018-12-03T02:08:58.685Z,23.22
2018-12-03T02:11:56.250Z,25.97
2018-12-03T02:14:54.275Z,23.92
2018-12-03T02:17:51.974Z,23.50
2018-12-03T02:20:49.662Z,24.63
2018-12-03T02:23:47.017Z,21.85
2018-12-03T02:26:44.759Z,22.55
2018-12-03T02:29:42.631Z,24.30
2018-12-03T02:32:40.099Z,25.23
2018-12-03T02:35:37.144Z,23.57
2018-12-03T02:38:34.936Z,22.55
2018-12-03T02:41:32.312Z,23.92
2018-12-03T02:44:29.817Z,25.30
2018-12-03T02:47:27.701Z,22.48
2018-12-03T02:50:25.366Z,24.23
2018-12-03T02:53:23.477Z,25.57
2018-12-03T02:56:22.954Z,23.02
2018-12-03T02:59:23.145Z,23.60
2018-12-03T03:02:20.846Z,24.45
2018-12-03T03:05:18.431Z,25.25
2018-12-03T03:08:15.839Z,25.68
2018-12-03T03:11:16.380Z,24.87
2018-12-03T03:14:13.777Z,24.98
2018-12-03T03:17:11.375Z,25.68
2018-12-03T03:20:13.540Z,24.67
2018-12-03T03:23:10.923Z,24.85
2018-12-03T03:26:08.618Z,24.45
2018-12-03T03:29:05.649Z,23.40
2018-12-03T03:32:03.151Z,24.77
2018-12-03T03:35:00.317Z,25.90
2018-12-03T03:37:57.785Z,23.83
2018-12-03T03:40:55.615Z,23.02
2018-12-03T03:43:53.258Z,24.47
2018-12-03T03:46:50.577Z,28.40
2018-12-03T03:49:47.978Z,26.35
2018-12-03T03:52:45.312Z,25.35
2018-12-03T03:55:43.013Z,26.80
2018-12-03T03:58:40.710Z,25.10
2018-12-03T04:01:38.617Z,25.02
2018-12-03T04:04:36.163Z,26.70
2018-12-03T04:07:33.470Z,23.50
2018-12-03T04:10:31.134Z,21.37
2018-12-03T04:13:28.528Z,26.15
2018-12-03T04:16:26.398Z,22.20
2018-12-03T04:19:23.828Z,21.93
2018-12-03T04:22:21.479Z,23.60
2018-12-03T04:25:18.910Z,23.22
2018-12-03T04:28:16.384Z,20.55
2018-12-03T04:31:15.059Z,22.50
2018-12-03T04:34:12.770Z,22.98
2018-12-03T04:37:10.480Z,18.90
2018-12-03T04:40:13.729Z,19.82
2018-12-03T04:43:11.520Z,17.92
2018-12-03T04:46:09.278Z,20.40
2018-12-03T04:49:07.145Z,16.90
2018-12-03T04:52:04.806Z,19.20
2018-12-03T04:55:02.169Z,16.42
2018-12-03T04:58:01.051Z,17.00
2018-12-03T05:00:58.776Z,16.65
2018-12-03T05:03:56.254Z,16.42
2018-12-03T05:06:53.638Z,17.05
2018-12-03T05:09:51.118Z,18.30
2018-12-03T05:12:50.376Z,16.23
2018-12-03T05:15:47.854Z,19.92
2018-12-03T05:18:47.276Z,17.27
2018-12-03T05:21:44.965Z,18.40
2018-12-03T05:24:42.394Z,19.57
2018-12-03T05:27:39.915Z,17.85
2018-12-03T05:30:37.389Z,18.73
2018-12-03T05:33:34.900Z,19.17
2018-12-03T05:36:33.296Z,18.32
2018-12-03T05:39:30.874Z,22.10
2018-12-03T05:42:28.114Z,17.32
2018-12-03T05:45:25.572Z,19.17
2018-12-03T05:48:25.917Z,20.55
2018-12-03T05:51:23.533Z,20.50
2018-12-03T05:54:21.437Z,21.93
2018-12-03T05:57:22.403Z,20.08
2018-12-03T06:00:25.142Z,22.52
2018-12-03T06:03:22.921Z,21.65
2018-12-03T06:06:20.896Z,22.48
2018-12-03T06:09:18.283Z,21.73
2018-12-03T06:12:15.897Z,22.22
2018-12-03T06:15:18.452Z,22.25
2018-12-03T06:18:16.572Z,23.30
2018-12-03T06:21:14.497Z,22.77
2018-12-03T06:24:12.195Z,20.55
2018-12-03T06:27:12.273Z,20.10
2018-12-03T06:30:22.653Z,24.27
2018-12-03T06:33:21.822Z,23.40
2018-12-03T06:36:19.325Z,24.30
2018-12-03T06:39:16.988Z,25.02
2018-12-03T06:42:14.523Z,26.37
2018-12-03T06:45:14.629Z,21.82
2018-12-03T06:48:24.369Z,26.80
2018-12-03T06:51:22.343Z,22.42
2018-12-03T06:54:20.312Z,24.77
2018-12-03T06:57:17.541Z,25.40
2018-12-03T07:00:20.599Z,25.15
2018-12-03T07:03:18.130Z,23.35
2018-12-03T07:06:17.089Z,24.92
2018-12-03T07:09:15.402Z,22.62
2018-12-03T07:12:13.195Z,22.73
2018-12-03T07:15:13.277Z,24.47
2018-12-03T07:18:12.259Z,27.25
2018-12-03T07:21:12.608Z,22.52
2018-12-03T07:24:10.169Z,27.37
2018-12-03T07:27:08.077Z,23.62
2018-12-03T07:30:10.120Z,25.32
2018-12-03T07:33:07.829Z,23.65
2018-12-03T07:36:05.477Z,22.48
2018-12-03T07:39:03.084Z,21.00
2018-12-03T07:42:01.859Z,21.27
2018-12-03T07:45:00.775Z,24.12
2018-12-03T07:47:58.368Z,22.00
2018-12-03T07:50:57.466Z,23.25
2018-12-03T07:53:54.905Z,21.02
2018-12-03T07:56:52.592Z,20.75
2018-12-03T07:59:50.191Z,20.62
2018-12-03T08:02:47.570Z,19.30
2018-12-03T08:05:45.282Z,17.92
2018-12-03T08:08:42.823Z,22.82
2018-12-03T08:11:40.286Z,19.62
2018-12-03T08:14:38.688Z,17.52
2018-12-03T08:17:36.536Z,16.35
2018-12-03T08:21:16.226Z,15.72
2018-12-03T08:24:15.540Z,16.30
2018-12-03T08:27:13.565Z,16.40
2018-12-03T08:30:15.143Z,16.87
2018-12-03T08:33:12.912Z,16.65
2018-12-03T08:36:11.274Z,14.95
2018-12-03T08:39:12.301Z,15.48
2018-12-03T08:42:11.729Z,15.05
2018-12-03T08:45:09.191Z,17.00
2018-12-03T08:48:06.628Z,13.95
2018-12-03T08:51:04.291Z,14.53
2018-12-03T08:54:03.418Z,15.05
2018-12-03T08:57:00.778Z,13.28
2018-12-03T08:59:58.516Z,12.28
2018-12-03T09:02:58.043Z,12.90
2018-12-03T09:05:56.346Z,11.93
2018-12-03T09:08:54.825Z,12.45
2018-12-03T09:11:54.007Z,19.42
2018-12-03T09:14:51.472Z,14.50
2018-12-03T09:17:53.852Z,14.75
2018-12-03T09:20:51.854Z,14.60
2018-12-03T09:23:55.447Z,12.98
2018-12-03T09:26:52.985Z,18.55
2018-12-03T09:29:50.456Z,13.80
2018-12-03T09:32:48.222Z,14.58
2018-12-03T09:35:45.624Z,13.38
2018-12-03T09:39:17.491Z,13.20
2018-12-03T09:42:15.219Z,15.58
2018-12-03T09:45:30.618Z,12.98
2018-12-03T09:48:29.291Z,11.48
2018-12-03T09:51:38.546Z,12.65
2018-12-03T09:54:36.082Z,11.83
2018-12-03T09:57:33.802Z,13.60
2018-12-03T10:00:31.336Z,11.65
2018-12-03T10:03:38.894Z,13.32
2018-12-03T10:06:36.217Z,10.15
2018-12-03T10:09:40.156Z,12.00
2018-12-03T10:12:37.210Z,11.85
2018-12-03T10:15:34.907Z,13.05
2018-12-03T10:18:32.853Z,11.73
2018-12-03T10:21:30.771Z,10.03
2018-12-03T10:24:28.442Z,10.18
2018-12-03T10:27:25.459Z,10.15
2018-12-03T10:30:23.301Z,4.50
2018-12-03T10:33:26.249Z,3.20
2018-12-03T10:36:23.377Z,2.20
2018-12-03T10:39:35.024Z,1.80
2018-12-03T10:42:32.075Z,1.50
2018-12-03T10:45:29.206Z,0.77
2018-12-03T10:48:26.809Z,0.70
2018-12-03T10:51:24.201Z,0.67
2018-12-03T10:54:21.634Z,1.47
2018-12-03T10:57:20.209Z,1.03
2018-12-03T11:00:36.275Z,1.03
2018-12-03T11:03:50.970Z,0.63
2018-12-03T11:06:48.803Z,1.20
2018-12-03T11:09:46.038Z,1.00
2018-12-03T11:12:43.354Z,0.50
2018-12-03T11:15:41.102Z,3.50
2018-12-03T11:18:54.212Z,0.70
2018-12-03T11:21:51.999Z,0.53
2018-12-03T11:24:49.340Z,1.00
2018-12-03T11:27:52.036Z,0.80
2018-12-03T11:30:54.265Z,0.97
2018-12-03T11:33:53.653Z,3.73
2018-12-03T11:36:54.538Z,6.87
2018-12-03T11:39:57.347Z,3.63
2018-12-03T11:42:55.699Z,4.03
2018-12-03T11:45:54.217Z,1.43
2018-12-03T11:48:51.119Z,1.57
2018-12-03T11:51:47.931Z,1.53
2018-12-03T11:54:45.352Z,3.20
2018-12-03T11:57:42.780Z,2.10
2018-12-03T12:00:41.277Z,4.83
2018-12-03T12:03:44.519Z,1.60
2018-12-03T12:06:42.056Z,1.03
2018-12-03T12:09:39.647Z,0.97
2018-12-03T12:12:38.647Z,0.77
2018-12-03T12:15:36.315Z,0.50
2018-12-03T12:18:34.742Z,2.07
2018-12-03T12:21:31.830Z,3.50
2018-12-03T12:24:28.780Z,0.87
2018-12-03T12:27:26.206Z,0.50
2018-12-03T12:30:23.466Z,1.00
2018-12-03T12:33:20.901Z,0.70
2018-12-03T12:36:18.384Z,1.23
2018-12-03T12:39:15.492Z,1.13
2018-12-03T12:42:12.795Z,1.93
2018-12-03T12:45:25.914Z,0.90
2018-12-03T12:48:23.437Z,1.73
2018-12-03T12:51:21.383Z,1.50
2018-12-03T12:54:18.401Z,1.37
2018-12-03T12:57:15.911Z,1.67
2018-12-03T13:00:19.127Z,0.80
2018-12-03T13:03:16.497Z,2.00
2018-12-03T13:06:13.621Z,1.03
2018-12-03T13:09:12.512Z,0.70
2018-12-03T13:12:11.274Z,1.13
2018-12-03T13:15:14.159Z,2.13
2018-12-03T13:18:12.921Z,2.10
2018-12-03T13:21:10.239Z,1.63
2018-12-03T13:24:08.904Z,1.90
2018-12-03T13:27:06.740Z,1.30
2018-12-03T13:30:05.718Z,1.30
2018-12-03T13:33:02.719Z,1.50
2018-12-03T13:36:00.126Z,2.00
2018-12-03T13:38:57.366Z,1.63
2018-12-03T13:41:54.252Z,1.60
2018-12-03T13:44:51.430Z,1.43
2018-12-03T13:47:49.137Z,1.60
2018-12-03T13:50:46.248Z,1.90
2018-12-03T13:53:43.312Z,2.17
2018-12-03T13:56:42.066Z,1.27
2018-12-03T13:59:39.453Z,1.40
2018-12-03T14:02:36.609Z,0.70
2018-12-03T14:05:41.932Z,4.77
2018-12-03T14:09:24.004Z,1.87
2018-12-03T14:13:17.535Z,1.30
2018-12-03T14:16:55.802Z,2.07
2018-12-03T14:20:00.140Z,1.50
2018-12-03T14:23:08.575Z,1.37
2018-12-03T14:26:06.105Z,3.80
2018-12-03T14:29:03.026Z,8.47
2018-12-03T14:32:00.166Z,1.40
2018-12-03T14:34:58.030Z,11.00
2018-12-03T14:37:55.713Z,1.63
2018-12-03T14:40:53.907Z,0.77
2018-12-03T14:43:50.764Z,0.63
2018-12-03T14:46:47.898Z,2.57
2018-12-03T14:49:45.379Z,9.75
2018-12-03T14:52:42.849Z,2.03
2018-12-03T14:55:40.053Z,1.07
2018-12-03T14:58:37.101Z,17.30
2018-12-03T15:01:35.922Z,3.10
2018-12-03T15:04:33.280Z,3.03
2018-12-03T15:07:33.247Z,0.73
2018-12-03T15:10:31.896Z,1.57
2018-12-03T15:13:33.730Z,0.97
2018-12-03T15:16:31.056Z,3.23
2018-12-03T15:19:28.972Z,1.77
2018-12-03T15:22:25.880Z,1.00
2018-12-03T15:25:23.590Z,1.70
2018-12-03T15:28:21.049Z,1.33
2018-12-03T15:31:18.095Z,1.20
2018-12-03T15:34:15.987Z,2.15
2018-12-03T15:37:13.108Z,1.77
2018-12-03T15:40:18.206Z,2.97
2018-12-03T15:43:16.989Z,2.83
2018-12-03T15:46:14.551Z,1.82
2018-12-03T15:49:12.760Z,2.13
2018-12-03T15:52:10.086Z,1.82
2018-12-03T15:55:09.309Z,1.67
2018-12-03T15:58:06.835Z,4.37
2018-12-03T16:01:04.885Z,5.00
2018-12-03T16:04:02.383Z,4.83
2018-12-03T16:07:00.201Z,10.50
2018-12-03T16:09:58.283Z,5.93
2018-12-03T16:12:55.589Z,3.67
2018-12-03T16:15:53.280Z,3.73
2018-12-03T16:18:53.243Z,3.57
2018-12-03T16:21:50.859Z,2.90
2018-12-03T16:24:48.656Z,5.70
2018-12-03T16:27:47.276Z,5.15
2018-12-03T16:30:45.113Z,4.97
2018-12-03T16:33:42.457Z,4.75
2018-12-03T16:36:40.050Z,6.00
2018-12-03T16:39:38.049Z,6.65
2018-12-03T16:42:35.122Z,5.17
2018-12-03T16:45:32.164Z,4.30
2018-12-03T16:48:29.647Z,4.23
2018-12-03T16:51:27.319Z,2.80
2018-12-03T16:54:25.038Z,4.20
2018-12-03T16:57:22.822Z,3.37
2018-12-03T17:00:22.210Z,5.53
2018-12-03T17:03:19.728Z,3.50
2018-12-03T17:06:17.420Z,2.65
2018-12-03T17:09:17.820Z,4.40
2018-12-03T17:12:15.179Z,5.45
2018-12-03T17:15:12.839Z,4.15
2018-12-03T17:18:12.059Z,3.77
2018-12-03T17:22:19.191Z,4.90
2018-12-03T17:25:26.322Z,6.30
2018-12-03T17:28:24.091Z,3.33
2018-12-03T17:31:21.491Z,3.52
2018-12-03T17:34:19.097Z,4.37
2018-12-03T17:37:16.955Z,2.98
2018-12-03T17:40:15.404Z,2.50
2018-12-03T17:43:13.061Z,3.33
2018-12-03T17:46:10.687Z,3.35
2018-12-03T17:49:10.620Z,2.85
2018-12-03T17:52:08.095Z,2.87
2018-12-03T17:55:06.122Z,3.50
2018-12-03T17:58:06.319Z,3.03
2018-12-03T18:01:03.525Z,2.80
2018-12-03T18:04:00.697Z,2.37
2018-12-03T18:06:58.253Z,2.47
2018-12-03T18:09:56.189Z,2.17
2018-12-03T18:12:53.568Z,3.00
2018-12-03T18:15:53.025Z,1.50
2018-12-03T18:18:52.238Z,2.30
2018-12-03T18:21:50.048Z,1.37
2018-12-03T18:24:48.572Z,1.83
2018-12-03T18:27:45.674Z,1.97
2018-12-03T18:30:42.569Z,2.60
2018-12-03T18:33:48.764Z,1.95
2018-12-03T18:36:48.383Z,2.80
2018-12-03T18:39:53.861Z,4.10
2018-12-03T18:42:51.630Z,7.47
2018-12-03T18:45:50.517Z,7.75
2018-12-03T18:48:51.812Z,6.20
2018-12-03T18:51:50.009Z,5.40
2018-12-03T18:54:47.278Z,4.62
2018-12-03T18:57:53.624Z,8.33
2018-12-03T19:00:54.290Z,4.47
2018-12-03T19:04:17.112Z,6.22
2018-12-03T19:07:15.444Z,6.12
2018-12-03T19:10:13.344Z,3.80
2018-12-03T19:13:11.061Z,2.07
2018-12-03T19:16:08.983Z,1.87
2018-12-03T19:19:10.046Z,3.58
2018-12-03T19:22:08.116Z,1.52
2018-12-03T19:25:06.505Z,3.98
2018-12-03T19:28:04.314Z,2.30
2018-12-03T19:31:04.818Z,1.73
2018-12-03T19:34:07.153Z,1.07
2018-12-03T19:37:06.170Z,3.08
2018-12-03T19:40:04.212Z,3.70
2018-12-03T19:43:02.630Z,2.00
2018-12-03T19:45:59.500Z,2.00
2018-12-03T19:48:57.779Z,2.03
2018-12-03T19:51:57.759Z,1.80
2018-12-03T19:54:57.216Z,2.23
2018-12-03T19:58:18.959Z,2.77
2018-12-03T20:01:24.260Z,3.83
2018-12-03T20:04:43.559Z,5.20
2018-12-03T20:07:41.622Z,2.40
2018-12-03T20:10:39.499Z,2.35
2018-12-03T20:13:37.390Z,4.92
2018-12-03T20:16:34.976Z,3.40
2018-12-03T20:19:32.703Z,3.50
2018-12-03T20:22:53.309Z,3.42
2018-12-03T20:26:15.528Z,3.15
2018-12-03T20:29:58.349Z,3.40
2018-12-03T20:33:11.671Z,2.65
2018-12-03T20:37:06.994Z,2.37
2018-12-03T20:40:52.393Z,4.67
2018-12-03T20:43:52.439Z,4.85
2018-12-03T20:47:36.666Z,4.03
2018-12-03T20:50:43.781Z,3.08
2018-12-03T20:53:48.628Z,3.52
2018-12-03T20:56:46.578Z,3.42
2018-12-03T20:59:44.443Z,4.17
2018-12-03T21:02:42.290Z,2.60
2018-12-03T21:05:39.664Z,2.60
2018-12-03T21:08:37.293Z,2.50
2018-12-03T21:11:34.888Z,2.55
2018-12-03T21:14:32.043Z,3.98
2018-12-03T21:17:29.626Z,3.67
2018-12-03T21:20:44.889Z,13.28
2018-12-03T21:23:42.654Z,15.35
2018-12-03T21:26:40.529Z,13.70
2018-12-03T21:29:38.297Z,16.02
2018-12-03T21:32:36.149Z,17.17
2018-12-03T21:35:33.810Z,12.35
2018-12-03T21:38:32.006Z,15.65
2018-12-03T21:41:29.793Z,14.50
2018-12-03T21:44:27.453Z,14.30
2018-12-03T21:47:25.014Z,14.10
2018-12-03T21:50:22.462Z,9.53
2018-12-03T21:53:20.394Z,9.78
2018-12-03T21:56:18.256Z,5.15
2018-12-03T21:59:15.858Z,11.18
2018-12-03T22:02:13.628Z,15.28
2018-12-03T22:05:11.186Z,16.55
2018-12-03T22:08:08.955Z,17.15
2018-12-03T22:11:06.720Z,16.90
2018-12-03T22:14:04.416Z,18.73
2018-12-03T22:17:02.514Z,17.85
2018-12-03T22:20:00.128Z,18.23
2018-12-03T22:22:57.924Z,15.30
2018-12-03T22:25:55.746Z,14.13
2018-12-03T22:28:54.272Z,15.08
2018-12-03T22:31:51.733Z,14.73
2018-12-03T22:34:49.306Z,16.15
2018-12-03T22:37:46.778Z,15.32
2018-12-03T22:40:44.710Z,16.27
2018-12-03T22:43:43.115Z,14.65
2018-12-03T22:46:40.797Z,15.58
2018-12-03T22:49:38.379Z,14.98
2018-12-03T22:52:35.826Z,18.50
2018-12-03T22:55:33.795Z,17.90
2018-12-03T22:58:31.413Z,15.32
2018-12-03T23:01:28.894Z,16.80
2018-12-03T23:04:26.377Z,17.65
2018-12-03T23:07:23.647Z,16.52
2018-12-03T23:10:21.418Z,14.75
2018-12-03T23:13:18.859Z,15.48
2018-12-03T23:16:16.760Z,13.30
2018-12-03T23:19:15.275Z,14.45
2018-12-03T23:22:13.145Z,14.80
2018-12-03T23:25:11.047Z,15.23
2018-12-03T23:28:08.416Z,14.65
2018-12-03T23:31:05.804Z,14.70
2018-12-03T23:34:03.503Z,8.83
2018-12-03T23:37:00.867Z,5.62
2018-12-03T23:39:58.253Z,2.50
2018-12-03T23:42:55.690Z,2.33
2018-12-03T23:45:54.658Z,1.37
2018-12-03T23:48:52.495Z,1.20
2018-12-03T23:51:49.526Z,2.20
2018-12-03T23:54:47.270Z,1.00
2018-12-03T23:57:45.812Z,0.57
